sensor_id;sensor_type;location;lat;lon;timestamp;pressure;altitude;pressure_sealevel;temperature
15144;BMP180;7672;50.834;6.286;2023-08-31T00:00:54;99036.88;;;17.26
15144;BMP180;7672;50.834;6.286;2023-08-31T00:03:21;99039.44;;;17.26
15144;BMP180;7672;50.834;6.286;2023-08-31T00:05:49;99037.69;;;17.28
15144;BMP180;7672;50.834;6.286;2023-08-31T00:08:18;99027.47;;;17.28
15144;BMP180;7672;50.834;6.286;2023-08-31T00:10:45;99021.47;;;17.29
15144;BMP180;7672;50.834;6.286;2023-08-31T00:13:12;99021.50;;;17.27
15144;BMP180;7672;50.834;6.286;2023-08-31T00:15:39;99027.47;;;17.28
15144;BMP180;7672;50.834;6.286;2023-08-31T00:18:08;99030.97;;;17.25
15144;BMP180;7672;50.834;6.286;2023-08-31T00:20:38;99031.81;;;17.24
15144;BMP180;7672;50.834;6.286;2023-08-31T00:23:05;99030.13;;;17.23
15144;BMP180;7672;50.834;6.286;2023-08-31T00:25:33;99027.63;;;17.22
15144;BMP180;7672;50.834;6.286;2023-08-31T00:28:00;99029.41;;;17.20
15144;BMP180;7672;50.834;6.286;2023-08-31T00:30:32;99029.44;;;17.18
15144;BMP180;7672;50.834;6.286;2023-08-31T00:32:59;99038.00;;;17.17
15144;BMP180;7672;50.834;6.286;2023-08-31T00:35:28;99032.91;;;17.17
15144;BMP180;7672;50.834;6.286;2023-08-31T00:37:56;99032.97;;;17.14
15144;BMP180;7672;50.834;6.286;2023-08-31T00:40:28;99027.88;;;17.14
15144;BMP180;7672;50.834;6.286;2023-08-31T00:42:58;99031.38;;;17.12
15144;BMP180;7672;50.834;6.286;2023-08-31T00:45:25;99027.25;;;17.08
15144;BMP180;7672;50.834;6.286;2023-08-31T00:47:52;99028.22;;;17.04
15144;BMP180;7672;50.834;6.286;2023-08-31T00:50:19;99028.38;;;16.99
15144;BMP180;7672;50.834;6.286;2023-08-31T00:52:46;99029.28;;;16.98
15144;BMP180;7672;50.834;6.286;2023-08-31T00:55:15;99025.19;;;16.93
15144;BMP180;7672;50.834;6.286;2023-08-31T00:57:45;99033.00;;;16.88
15144;BMP180;7672;50.834;6.286;2023-08-31T01:00:14;99035.66;;;16.84
15144;BMP180;7672;50.834;6.286;2023-08-31T01:03:03;99027.38;;;16.77
15144;BMP180;7672;50.834;6.286;2023-08-31T01:06:12;99029.28;;;16.71
15144;BMP180;7672;50.834;6.286;2023-08-31T01:11:49;99031.31;;;16.60
15144;BMP180;7672;50.834;6.286;2023-08-31T01:14:27;99035.66;;;16.58
15144;BMP180;7672;50.834;6.286;2023-08-31T01:16:58;99023.88;;;16.54
15144;BMP180;7672;50.834;6.286;2023-08-31T01:19:51;99026.50;;;16.51
15144;BMP180;7672;50.834;6.286;2023-08-31T01:23:01;99029.25;;;16.45
15144;BMP180;7672;50.834;6.286;2023-08-31T01:25:32;99030.25;;;16.40
15144;BMP180;7672;50.834;6.286;2023-08-31T01:28:01;99023.53;;;16.37
15144;BMP180;7672;50.834;6.286;2023-08-31T01:30:32;99021.06;;;16.34
15144;BMP180;7672;50.834;6.286;2023-08-31T01:33:02;99028.78;;;16.33
15144;BMP180;7672;50.834;6.286;2023-08-31T01:35:42;99028.06;;;16.28
15144;BMP180;7672;50.834;6.286;2023-08-31T01:38:11;99033.22;;;16.25
15144;BMP180;7672;50.834;6.286;2023-08-31T01:40:58;99033.34;;;16.20
15144;BMP180;7672;50.834;6.286;2023-08-31T01:43:30;99042.84;;;16.15
15144;BMP180;7672;50.834;6.286;2023-08-31T01:46:01;99033.50;;;16.14
15144;BMP180;7672;50.834;6.286;2023-08-31T01:48:43;99033.56;;;16.13
15144;BMP180;7672;50.834;6.286;2023-08-31T01:51:16;99045.56;;;16.09
15144;BMP180;7672;50.834;6.286;2023-08-31T01:53:44;99032.84;;;16.08
15144;BMP180;7672;50.834;6.286;2023-08-31T01:56:12;99036.31;;;16.06
15144;BMP180;7672;50.834;6.286;2023-08-31T01:58:40;99032.16;;;16.03
15144;BMP180;7672;50.834;6.286;2023-08-31T02:01:08;99029.66;;;16.02
15144;BMP180;7672;50.834;6.286;2023-08-31T02:03:35;99034.00;;;15.98
15144;BMP180;7672;50.834;6.286;2023-08-31T02:06:02;99039.94;;;15.99
15144;BMP180;7672;50.834;6.286;2023-08-31T02:08:32;99040.81;;;15.98
15144;BMP180;7672;50.834;6.286;2023-08-31T02:10:59;99037.44;;;15.97
15144;BMP180;7672;50.834;6.286;2023-08-31T02:13:27;99033.25;;;15.95
15144;BMP180;7672;50.834;6.286;2023-08-31T02:15:54;99040.06;;;15.94
15144;BMP180;7672;50.834;6.286;2023-08-31T02:18:21;99038.38;;;15.93
15144;BMP180;7672;50.834;6.286;2023-08-31T02:20:52;99035.81;;;15.93
15144;BMP180;7672;50.834;6.286;2023-08-31T02:23:20;99042.66;;;15.93
15144;BMP180;7672;50.834;6.286;2023-08-31T02:25:49;99035.91;;;15.90
15144;BMP180;7672;50.834;6.286;2023-08-31T02:28:20;99034.25;;;15.89
15144;BMP180;7672;50.834;6.286;2023-08-31T02:31:02;99041.06;;;15.89
15144;BMP180;7672;50.834;6.286;2023-08-31T02:33:35;99047.03;;;15.88
15144;BMP180;7672;50.834;6.286;2023-08-31T02:36:07;99048.75;;;15.87
15144;BMP180;7672;50.834;6.286;2023-08-31T02:38:36;99055.59;;;15.85
15144;BMP180;7672;50.834;6.286;2023-08-31T02:41:03;99048.81;;;15.84
15144;BMP180;7672;50.834;6.286;2023-08-31T02:43:30;99059.78;;;15.88
15144;BMP180;7672;50.834;6.286;2023-08-31T02:46:02;99053.03;;;15.85
15144;BMP180;7672;50.834;6.286;2023-08-31T02:48:31;99058.22;;;15.82
15144;BMP180;7672;50.834;6.286;2023-08-31T02:51:00;99049.72;;;15.83
15144;BMP180;7672;50.834;6.286;2023-08-31T02:53:33;99061.56;;;15.84
15144;BMP180;7672;50.834;6.286;2023-08-31T02:56:01;99058.19;;;15.84
15144;BMP180;7672;50.834;6.286;2023-08-31T02:58:29;99056.56;;;15.81
15144;BMP180;7672;50.834;6.286;2023-08-31T03:01:10;99061.66;;;15.81
15144;BMP180;7672;50.834;6.286;2023-08-31T03:03:42;99060.84;;;15.79
15144;BMP180;7672;50.834;6.286;2023-08-31T03:06:10;99061.69;;;15.80
15144;BMP180;7672;50.834;6.286;2023-08-31T03:08:38;99058.28;;;15.79
15144;BMP180;7672;50.834;6.286;2023-08-31T03:11:05;99054.88;;;15.80
15144;BMP180;7672;50.834;6.286;2023-08-31T03:13:33;99053.19;;;15.79
15144;BMP180;7672;50.834;6.286;2023-08-31T03:16:01;99056.50;;;15.83
15144;BMP180;7672;50.834;6.286;2023-08-31T03:18:31;99053.13;;;15.82
15144;BMP180;7672;50.834;6.286;2023-08-31T03:20:59;99048.88;;;15.83
15144;BMP180;7672;50.834;6.286;2023-08-31T03:23:33;99049.78;;;15.80
15144;BMP180;7672;50.834;6.286;2023-08-31T03:26:09;99048.09;;;15.79
15144;BMP180;7672;50.834;6.286;2023-08-31T03:28:40;99053.19;;;15.79
15144;BMP180;7672;50.834;6.286;2023-08-31T03:31:11;99046.47;;;15.78
15144;BMP180;7672;50.834;6.286;2023-08-31T03:33:42;99054.09;;;15.78
15144;BMP180;7672;50.834;6.286;2023-08-31T03:36:14;99062.63;;;15.77
15144;BMP180;7672;50.834;6.286;2023-08-31T03:38:41;99058.38;;;15.76
15144;BMP180;7672;50.834;6.286;2023-08-31T03:41:12;99060.94;;;15.76
15144;BMP180;7672;50.834;6.286;2023-08-31T03:43:44;99065.22;;;15.76
15144;BMP180;7672;50.834;6.286;2023-08-31T03:46:12;99063.53;;;15.75
15144;BMP180;7672;50.834;6.286;2023-08-31T03:48:39;99069.44;;;15.75
15144;BMP180;7672;50.834;6.286;2023-08-31T03:51:08;99067.81;;;15.74
15144;BMP180;7672;50.834;6.286;2023-08-31T03:53:36;99061.91;;;15.72
15144;BMP180;7672;50.834;6.286;2023-08-31T03:56:03;99067.00;;;15.72
15144;BMP180;7672;50.834;6.286;2023-08-31T03:58:32;99080.66;;;15.70
15144;BMP180;7672;50.834;6.286;2023-08-31T04:00:59;99075.50;;;15.71
15144;BMP180;7672;50.834;6.286;2023-08-31T04:03:27;99072.19;;;15.69
15144;BMP180;7672;50.834;6.286;2023-08-31T04:05:56;99074.72;;;15.69
15144;BMP180;7672;50.834;6.286;2023-08-31T04:08:26;99077.28;;;15.69
15144;BMP180;7672;50.834;6.286;2023-08-31T04:10:56;99081.50;;;15.69
15144;BMP180;7672;50.834;6.286;2023-08-31T04:13:25;99073.09;;;15.65
15144;BMP180;7672;50.834;6.286;2023-08-31T04:15:53;99074.00;;;15.64
15144;BMP180;7672;50.834;6.286;2023-08-31T04:18:21;99079.94;;;15.65
15144;BMP180;7672;50.834;6.286;2023-08-31T04:20:51;99087.63;;;15.63
15144;BMP180;7672;50.834;6.286;2023-08-31T04:23:19;99090.16;;;15.63
15144;BMP180;7672;50.834;6.286;2023-08-31T04:25:47;99088.47;;;15.62
15144;BMP180;7672;50.834;6.286;2023-08-31T04:28:14;99091.91;;;15.61
15144;BMP180;7672;50.834;6.286;2023-08-31T04:30:41;99093.63;;;15.61
15144;BMP180;7672;50.834;6.286;2023-08-31T04:33:09;99087.69;;;15.60
15144;BMP180;7672;50.834;6.286;2023-08-31T04:35:37;99096.13;;;15.62
15144;BMP180;7672;50.834;6.286;2023-08-31T04:38:04;99089.41;;;15.60
15144;BMP180;7672;50.834;6.286;2023-08-31T04:40:31;99090.22;;;15.62
15144;BMP180;7672;50.834;6.286;2023-08-31T04:42:58;99096.13;;;15.62
15144;BMP180;7672;50.834;6.286;2023-08-31T04:45:25;99104.63;;;15.61
15144;BMP180;7672;50.834;6.286;2023-08-31T04:47:53;99105.53;;;15.60
15144;BMP180;7672;50.834;6.286;2023-08-31T04:50:20;99109.81;;;15.58
15144;BMP180;7672;50.834;6.286;2023-08-31T04:52:47;99106.41;;;15.59
15144;BMP180;7672;50.834;6.286;2023-08-31T04:55:14;99118.22;;;15.62
15144;BMP180;7672;50.834;6.286;2023-08-31T04:57:41;99109.72;;;15.61
15144;BMP180;7672;50.834;6.286;2023-08-31T05:00:10;99113.19;;;15.60
15144;BMP180;7672;50.834;6.286;2023-08-31T05:02:41;99119.06;;;15.62
15144;BMP180;7672;50.834;6.286;2023-08-31T05:05:09;99117.34;;;15.63
15144;BMP180;7672;50.834;6.286;2023-08-31T05:07:40;99116.50;;;15.62
15144;BMP180;7672;50.834;6.286;2023-08-31T05:10:09;99119.84;;;15.64
15144;BMP180;7672;50.834;6.286;2023-08-31T05:12:41;99121.50;;;15.65
15144;BMP180;7672;50.834;6.286;2023-08-31T05:15:16;99126.53;;;15.68
15144;BMP180;7672;50.834;6.286;2023-08-31T05:17:51;99133.31;;;15.69
15144;BMP180;7672;50.834;6.286;2023-08-31T05:20:21;99133.22;;;15.72
15144;BMP180;7672;50.834;6.286;2023-08-31T05:22:51;99135.69;;;15.77
15144;BMP180;7672;50.834;6.286;2023-08-31T05:25:22;99140.72;;;15.78
15144;BMP180;7672;50.834;6.286;2023-08-31T05:27:58;99147.22;;;15.90
15144;BMP180;7672;50.834;6.286;2023-08-31T05:30:28;99143.66;;;15.95
15144;BMP180;7672;50.834;6.286;2023-08-31T05:32:58;99148.44;;;16.07
15144;BMP180;7672;50.834;6.286;2023-08-31T05:35:30;99153.22;;;16.19
15144;BMP180;7672;50.834;6.286;2023-08-31T05:37:57;99152.84;;;16.34
15144;BMP180;7672;50.834;6.286;2023-08-31T05:40:25;99153.31;;;16.46
15144;BMP180;7672;50.834;6.286;2023-08-31T05:42:52;99151.97;;;16.64
15144;BMP180;7672;50.834;6.286;2023-08-31T05:45:19;99147.25;;;16.79
15144;BMP180;7672;50.834;6.286;2023-08-31T05:47:46;99150.13;;;16.97
15144;BMP180;7672;50.834;6.286;2023-08-31T05:50:13;99156.34;;;17.16
15144;BMP180;7672;50.834;6.286;2023-08-31T05:52:40;99164.28;;;17.36
15144;BMP180;7672;50.834;6.286;2023-08-31T05:55:10;99147.50;;;17.53
15144;BMP180;7672;50.834;6.286;2023-08-31T05:57:38;99156.19;;;17.74
15144;BMP180;7672;50.834;6.286;2023-08-31T06:00:06;99155.56;;;17.92
15144;BMP180;7672;50.834;6.286;2023-08-31T06:02:40;99158.28;;;18.11
15144;BMP180;7672;50.834;6.286;2023-08-31T06:05:08;99165.38;;;18.29
15144;BMP180;7672;50.834;6.286;2023-08-31T06:07:35;99165.50;;;18.49
15144;BMP180;7672;50.834;6.286;2023-08-31T06:10:02;99168.28;;;18.66
15144;BMP180;7672;50.834;6.286;2023-08-31T06:12:30;99164.22;;;18.83
15144;BMP180;7672;50.834;6.286;2023-08-31T06:14:57;99170.25;;;19.04
15144;BMP180;7672;50.834;6.286;2023-08-31T06:17:29;99178.00;;;19.25
15144;BMP180;7672;50.834;6.286;2023-08-31T06:20:00;99183.19;;;19.45
15144;BMP180;7672;50.834;6.286;2023-08-31T06:22:28;99179.94;;;19.61
15144;BMP180;7672;50.834;6.286;2023-08-31T06:24:55;99177.38;;;19.81
15144;BMP180;7672;50.834;6.286;2023-08-31T06:27:22;99189.56;;;19.97
15144;BMP180;7672;50.834;6.286;2023-08-31T06:29:49;99183.72;;;20.14
15144;BMP180;7672;50.834;6.286;2023-08-31T06:32:17;99184.63;;;20.33
15144;BMP180;7672;50.834;6.286;2023-08-31T06:34:48;99182.22;;;20.48
15144;BMP180;7672;50.834;6.286;2023-08-31T06:37:28;99189.97;;;20.66
15144;BMP180;7672;50.834;6.286;2023-08-31T06:40:01;99184.88;;;20.85
15144;BMP180;7672;50.834;6.286;2023-08-31T06:42:33;99190.72;;;21.07
15144;BMP180;7672;50.834;6.286;2023-08-31T06:45:06;99192.34;;;21.26
15144;BMP180;7672;50.834;6.286;2023-08-31T06:47:37;99175.16;;;21.45
15144;BMP180;7672;50.834;6.286;2023-08-31T06:50:15;99184.03;;;21.75
15144;BMP180;7672;50.834;6.286;2023-08-31T06:52:43;99188.50;;;22.05
15144;BMP180;7672;50.834;6.286;2023-08-31T06:55:16;99182.34;;;22.41
15144;BMP180;7672;50.834;6.286;2023-08-31T06:57:43;99189.81;;;22.78
15144;BMP180;7672;50.834;6.286;2023-08-31T07:00:15;99187.41;;;23.22
15144;BMP180;7672;50.834;6.286;2023-08-31T07:02:45;99181.34;;;23.68
15144;BMP180;7672;50.834;6.286;2023-08-31T07:05:15;99198.59;;;24.26
15144;BMP180;7672;50.834;6.286;2023-08-31T07:07:46;99199.81;;;24.76
15144;BMP180;7672;50.834;6.286;2023-08-31T07:10:22;99201.72;;;25.28
15144;BMP180;7672;50.834;6.286;2023-08-31T07:12:52;99201.03;;;25.79
15144;BMP180;7672;50.834;6.286;2023-08-31T07:15:19;99209.59;;;26.30
15144;BMP180;7672;50.834;6.286;2023-08-31T07:17:46;99208.69;;;26.81
15144;BMP180;7672;50.834;6.286;2023-08-31T07:20:13;99213.69;;;27.32
15144;BMP180;7672;50.834;6.286;2023-08-31T07:22:46;99200.28;;;27.85
15144;BMP180;7672;50.834;6.286;2023-08-31T07:25:16;99205.69;;;28.39
15144;BMP180;7672;50.834;6.286;2023-08-31T07:27:44;99209.53;;;28.90
15144;BMP180;7672;50.834;6.286;2023-08-31T07:30:43;99208.41;;;29.47
15144;BMP180;7672;50.834;6.286;2023-08-31T07:33:34;99217.16;;;30.08
15144;BMP180;7672;50.834;6.286;2023-08-31T07:36:07;99213.84;;;30.58
15144;BMP180;7672;50.834;6.286;2023-08-31T07:38:40;99209.78;;;31.04
15144;BMP180;7672;50.834;6.286;2023-08-31T07:41:07;99224.78;;;31.51
15144;BMP180;7672;50.834;6.286;2023-08-31T07:43:37;99215.44;;;31.95
15144;BMP180;7672;50.834;6.286;2023-08-31T07:46:11;99228.06;;;32.47
15144;BMP180;7672;50.834;6.286;2023-08-31T07:48:38;99225.63;;;32.91
15144;BMP180;7672;50.834;6.286;2023-08-31T07:51:06;99231.31;;;33.40
15144;BMP180;7672;50.834;6.286;2023-08-31T07:53:33;99230.63;;;33.83
15144;BMP180;7672;50.834;6.286;2023-08-31T07:56:01;99220.69;;;34.21
15144;BMP180;7672;50.834;6.286;2023-08-31T07:58:28;99231.47;;;34.60
15144;BMP180;7672;50.834;6.286;2023-08-31T08:00:56;99235.50;;;34.98
15144;BMP180;7672;50.834;6.286;2023-08-31T08:03:23;99236.56;;;35.20
15144;BMP180;7672;50.834;6.286;2023-08-31T08:05:51;99236.81;;;35.43
15144;BMP180;7672;50.834;6.286;2023-08-31T08:08:18;99227.69;;;35.71
15144;BMP180;7672;50.834;6.286;2023-08-31T08:10:45;99240.25;;;36.00
15144;BMP180;7672;50.834;6.286;2023-08-31T08:13:13;99235.44;;;36.28
15144;BMP180;7672;50.834;6.286;2023-08-31T08:15:41;99241.22;;;36.55
15144;BMP180;7672;50.834;6.286;2023-08-31T08:18:08;99239.34;;;36.79
15144;BMP180;7672;50.834;6.286;2023-08-31T08:20:35;99251.66;;;37.03
15144;BMP180;7672;50.834;6.286;2023-08-31T08:23:05;99244.66;;;37.25
15144;BMP180;7672;50.834;6.286;2023-08-31T08:25:37;99248.00;;;37.50
15144;BMP180;7672;50.834;6.286;2023-08-31T08:28:04;99246.91;;;37.67
15144;BMP180;7672;50.834;6.286;2023-08-31T08:30:31;99249.53;;;37.75
15144;BMP180;7672;50.834;6.286;2023-08-31T08:32:58;99258.50;;;37.88
15144;BMP180;7672;50.834;6.286;2023-08-31T08:35:26;99239.72;;;38.05
15144;BMP180;7672;50.834;6.286;2023-08-31T08:37:53;99249.00;;;38.01
15144;BMP180;7672;50.834;6.286;2023-08-31T08:40:20;99259.06;;;37.98
15144;BMP180;7672;50.834;6.286;2023-08-31T08:42:48;99248.16;;;38.01
15144;BMP180;7672;50.834;6.286;2023-08-31T08:45:16;99248.75;;;38.11
15144;BMP180;7672;50.834;6.286;2023-08-31T08:47:44;99262.66;;;38.27
15144;BMP180;7672;50.834;6.286;2023-08-31T08:50:13;99261.81;;;38.49
15144;BMP180;7672;50.834;6.286;2023-08-31T08:52:41;99258.31;;;38.71
15144;BMP180;7672;50.834;6.286;2023-08-31T08:55:09;99258.97;;;38.87
15144;BMP180;7672;50.834;6.286;2023-08-31T08:57:36;99261.44;;;39.03
15144;BMP180;7672;50.834;6.286;2023-08-31T09:00:05;99261.88;;;39.21
15144;BMP180;7672;50.834;6.286;2023-08-31T09:02:32;99257.38;;;39.36
15144;BMP180;7672;50.834;6.286;2023-08-31T09:04:59;99268.59;;;39.52
15144;BMP180;7672;50.834;6.286;2023-08-31T09:07:30;99269.66;;;39.72
15144;BMP180;7672;50.834;6.286;2023-08-31T09:09:59;99274.16;;;39.92
15144;BMP180;7672;50.834;6.286;2023-08-31T09:12:26;99276.44;;;40.16
15144;BMP180;7672;50.834;6.286;2023-08-31T09:15:01;99279.50;;;40.40
15144;BMP180;7672;50.834;6.286;2023-08-31T09:17:42;99273.41;;;40.67
15144;BMP180;7672;50.834;6.286;2023-08-31T09:20:12;99279.94;;;40.98
15144;BMP180;7672;50.834;6.286;2023-08-31T09:22:43;99275.59;;;41.18
15144;BMP180;7672;50.834;6.286;2023-08-31T09:25:13;99281.41;;;41.35
15144;BMP180;7672;50.834;6.286;2023-08-31T09:27:40;99275.91;;;41.43
15144;BMP180;7672;50.834;6.286;2023-08-31T09:30:07;99274.94;;;41.50
15144;BMP180;7672;50.834;6.286;2023-08-31T09:32:36;99288.38;;;41.42
15144;BMP180;7672;50.834;6.286;2023-08-31T09:35:08;99277.31;;;41.39
15144;BMP180;7672;50.834;6.286;2023-08-31T09:37:56;99284.34;;;41.12
15144;BMP180;7672;50.834;6.286;2023-08-31T09:40:24;99278.69;;;40.95
15144;BMP180;7672;50.834;6.286;2023-08-31T09:42:51;99279.13;;;40.43
15144;BMP180;7672;50.834;6.286;2023-08-31T09:45:32;99274.81;;;39.59
15144;BMP180;7672;50.834;6.286;2023-08-31T09:48:04;99265.25;;;39.01
15144;BMP180;7672;50.834;6.286;2023-08-31T09:50:33;99276.00;;;38.48
15144;BMP180;7672;50.834;6.286;2023-08-31T09:53:04;99273.19;;;38.49
15144;BMP180;7672;50.834;6.286;2023-08-31T09:55:32;99269.53;;;38.87
15144;BMP180;7672;50.834;6.286;2023-08-31T09:58:01;99270.84;;;39.20
15144;BMP180;7672;50.834;6.286;2023-08-31T10:00:43;99268.09;;;38.99
15144;BMP180;7672;50.834;6.286;2023-08-31T10:03:34;99269.06;;;38.33
15144;BMP180;7672;50.834;6.286;2023-08-31T10:06:08;99264.94;;;38.08
15144;BMP180;7672;50.834;6.286;2023-08-31T10:08:39;99260.88;;;38.28
15144;BMP180;7672;50.834;6.286;2023-08-31T10:11:07;99266.06;;;38.50
15144;BMP180;7672;50.834;6.286;2023-08-31T10:13:38;99259.59;;;38.38
15144;BMP180;7672;50.834;6.286;2023-08-31T10:16:08;99273.84;;;37.84
15144;BMP180;7672;50.834;6.286;2023-08-31T10:18:37;99276.84;;;37.05
15144;BMP180;7672;50.834;6.286;2023-08-31T10:21:09;99274.44;;;36.08
15144;BMP180;7672;50.834;6.286;2023-08-31T10:23:44;99272.66;;;35.11
15144;BMP180;7672;50.834;6.286;2023-08-31T10:28:55;99265.59;;;33.47
15144;BMP180;7672;50.834;6.286;2023-08-31T10:31:31;99261.38;;;32.73
15144;BMP180;7672;50.834;6.286;2023-08-31T10:34:35;99265.53;;;31.91
15144;BMP180;7672;50.834;6.286;2023-08-31T10:37:30;99279.91;;;31.18
15144;BMP180;7672;50.834;6.286;2023-08-31T10:40:08;99273.13;;;30.56
15144;BMP180;7672;50.834;6.286;2023-08-31T10:42:46;99281.81;;;29.94
15144;BMP180;7672;50.834;6.286;2023-08-31T10:45:20;99284.03;;;29.35
15144;BMP180;7672;50.834;6.286;2023-08-31T10:48:01;99283.75;;;28.72
15144;BMP180;7672;50.834;6.286;2023-08-31T10:55:16;99275.13;;;27.32
15144;BMP180;7672;50.834;6.286;2023-08-31T10:57:44;99281.84;;;26.98
15144;BMP180;7672;50.834;6.286;2023-08-31T11:00:12;99273.00;;;26.64
15144;BMP180;7672;50.834;6.286;2023-08-31T11:05:22;99274.63;;;26.01
15144;BMP180;7672;50.834;6.286;2023-08-31T11:07:59;99269.16;;;25.79
15144;BMP180;7672;50.834;6.286;2023-08-31T11:10:28;99280.66;;;25.61
15144;BMP180;7672;50.834;6.286;2023-08-31T11:12:56;99274.66;;;25.47
15144;BMP180;7672;50.834;6.286;2023-08-31T11:15:26;99274.53;;;25.36
15144;BMP180;7672;50.834;6.286;2023-08-31T11:17:55;99276.56;;;25.31
15144;BMP180;7672;50.834;6.286;2023-08-31T11:20:24;99274.72;;;25.73
15144;BMP180;7672;50.834;6.286;2023-08-31T11:22:55;99287.38;;;26.43
15144;BMP180;7672;50.834;6.286;2023-08-31T11:25:23;99281.19;;;26.58
15144;BMP180;7672;50.834;6.286;2023-08-31T11:28:03;99285.00;;;26.40
15144;BMP180;7672;50.834;6.286;2023-08-31T11:30:33;99280.75;;;26.13
15144;BMP180;7672;50.834;6.286;2023-08-31T11:33:06;99288.53;;;25.86
15144;BMP180;7672;50.834;6.286;2023-08-31T11:35:36;99291.00;;;25.61
15144;BMP180;7672;50.834;6.286;2023-08-31T11:38:05;99292.31;;;25.41
15144;BMP180;7672;50.834;6.286;2023-08-31T11:40:32;99292.00;;;25.19
15144;BMP180;7672;50.834;6.286;2023-08-31T11:42:59;99294.34;;;24.94
15144;BMP180;7672;50.834;6.286;2023-08-31T11:45:38;99282.06;;;24.70
15144;BMP180;7672;50.834;6.286;2023-08-31T11:48:08;99285.47;;;24.56
15144;BMP180;7672;50.834;6.286;2023-08-31T11:50:37;99283.44;;;24.61
15144;BMP180;7672;50.834;6.286;2023-08-31T11:53:07;99277.75;;;24.70
15144;BMP180;7672;50.834;6.286;2023-08-31T11:56:01;99276.72;;;24.87
15144;BMP180;7672;50.834;6.286;2023-08-31T11:58:52;99275.78;;;24.88
15144;BMP180;7672;50.834;6.286;2023-08-31T12:01:46;99278.78;;;24.95
15144;BMP180;7672;50.834;6.286;2023-08-31T12:04:19;99274.91;;;25.16
15144;BMP180;7672;50.834;6.286;2023-08-31T12:06:47;99274.41;;;25.38
15144;BMP180;7672;50.834;6.286;2023-08-31T12:09:16;99275.94;;;25.54
15144;BMP180;7672;50.834;6.286;2023-08-31T12:11:53;99260.66;;;25.63
15144;BMP180;7672;50.834;6.286;2023-08-31T12:14:23;99260.28;;;25.69
15144;BMP180;7672;50.834;6.286;2023-08-31T12:17:00;99271.41;;;25.71
15144;BMP180;7672;50.834;6.286;2023-08-31T12:19:43;99272.13;;;25.73
15144;BMP180;7672;50.834;6.286;2023-08-31T12:22:11;99271.47;;;25.70
15144;BMP180;7672;50.834;6.286;2023-08-31T12:24:43;99274.34;;;25.65
15144;BMP180;7672;50.834;6.286;2023-08-31T12:27:11;99283.41;;;25.58
15144;BMP180;7672;50.834;6.286;2023-08-31T12:29:42;99292.50;;;25.52
15144;BMP180;7672;50.834;6.286;2023-08-31T12:32:09;99295.75;;;25.41
15144;BMP180;7672;50.834;6.286;2023-08-31T12:34:36;99284.59;;;25.27
15144;BMP180;7672;50.834;6.286;2023-08-31T12:37:03;99281.84;;;25.16
15144;BMP180;7672;50.834;6.286;2023-08-31T12:39:31;99284.03;;;25.08
15144;BMP180;7672;50.834;6.286;2023-08-31T12:41:59;99287.66;;;25.05
15144;BMP180;7672;50.834;6.286;2023-08-31T12:44:43;99288.50;;;25.06
15144;BMP180;7672;50.834;6.286;2023-08-31T12:47:10;99280.72;;;25.06
15144;BMP180;7672;50.834;6.286;2023-08-31T12:49:37;99278.47;;;25.00
15144;BMP180;7672;50.834;6.286;2023-08-31T12:52:04;99282.28;;;24.94
15144;BMP180;7672;50.834;6.286;2023-08-31T12:54:32;99274.78;;;24.90
15144;BMP180;7672;50.834;6.286;2023-08-31T12:56:59;99285.13;;;24.90
15144;BMP180;7672;50.834;6.286;2023-08-31T12:59:26;99278.28;;;24.89
15144;BMP180;7672;50.834;6.286;2023-08-31T13:01:53;99276.44;;;24.91
15144;BMP180;7672;50.834;6.286;2023-08-31T13:04:20;99279.84;;;24.91
15144;BMP180;7672;50.834;6.286;2023-08-31T13:06:48;99270.38;;;24.92
15144;BMP180;7672;50.834;6.286;2023-08-31T13:09:15;99273.13;;;24.89
15144;BMP180;7672;50.834;6.286;2023-08-31T13:11:42;99267.31;;;24.86
15144;BMP180;7672;50.834;6.286;2023-08-31T13:14:09;99270.72;;;24.86
15144;BMP180;7672;50.834;6.286;2023-08-31T13:16:36;99266.94;;;24.91
15144;BMP180;7672;50.834;6.286;2023-08-31T13:19:06;99260.75;;;24.94
15144;BMP180;7672;50.834;6.286;2023-08-31T13:21:33;99258.09;;;24.95
15144;BMP180;7672;50.834;6.286;2023-08-31T13:24:01;99260.75;;;24.94
15144;BMP180;7672;50.834;6.286;2023-08-31T13:26:28;99256.31;;;24.96
15144;BMP180;7672;50.834;6.286;2023-08-31T13:28:55;99258.00;;;24.97
15144;BMP180;7672;50.834;6.286;2023-08-31T13:31:22;99255.41;;;24.97
15144;BMP180;7672;50.834;6.286;2023-08-31T13:33:50;99256.88;;;25.01
15144;BMP180;7672;50.834;6.286;2023-08-31T13:36:17;99254.19;;;25.02
15144;BMP180;7672;50.834;6.286;2023-08-31T13:38:44;99247.78;;;25.09
15144;BMP180;7672;50.834;6.286;2023-08-31T13:41:11;99252.94;;;25.23
15144;BMP180;7672;50.834;6.286;2023-08-31T13:43:41;99243.84;;;25.30
15144;BMP180;7672;50.834;6.286;2023-08-31T13:46:12;99258.69;;;25.41
15144;BMP180;7672;50.834;6.286;2023-08-31T13:48:43;99261.66;;;25.49
15144;BMP180;7672;50.834;6.286;2023-08-31T13:51:11;99263.22;;;25.51
15144;BMP180;7672;50.834;6.286;2023-08-31T13:53:39;99264.69;;;25.55
15144;BMP180;7672;50.834;6.286;2023-08-31T13:56:08;99262.53;;;25.61
15144;BMP180;7672;50.834;6.286;2023-08-31T13:58:39;99262.06;;;25.69
15144;BMP180;7672;50.834;6.286;2023-08-31T14:01:08;99259.53;;;25.81
15144;BMP180;7672;50.834;6.286;2023-08-31T14:03:35;99252.66;;;25.94
15144;BMP180;7672;50.834;6.286;2023-08-31T14:06:03;99255.25;;;26.07
15144;BMP180;7672;50.834;6.286;2023-08-31T14:08:33;99248.97;;;26.11
15144;BMP180;7672;50.834;6.286;2023-08-31T14:11:00;99253.00;;;26.15
15144;BMP180;7672;50.834;6.286;2023-08-31T14:13:28;99261.41;;;26.18
15144;BMP180;7672;50.834;6.286;2023-08-31T14:15:57;99245.88;;;26.18
15144;BMP180;7672;50.834;6.286;2023-08-31T14:18:31;99260.69;;;26.16
15144;BMP180;7672;50.834;6.286;2023-08-31T14:21:01;99254.97;;;26.11
15144;BMP180;7672;50.834;6.286;2023-08-31T14:23:30;99253.72;;;26.04
15144;BMP180;7672;50.834;6.286;2023-08-31T14:26:02;99251.41;;;26.00
15144;BMP180;7672;50.834;6.286;2023-08-31T14:28:30;99252.53;;;25.96
15144;BMP180;7672;50.834;6.286;2023-08-31T14:30:57;99250.06;;;25.94
15144;BMP180;7672;50.834;6.286;2023-08-31T14:33:24;99247.66;;;25.91
15144;BMP180;7672;50.834;6.286;2023-08-31T14:35:51;99248.69;;;25.89
15144;BMP180;7672;50.834;6.286;2023-08-31T14:38:23;99250.72;;;25.84
15144;BMP180;7672;50.834;6.286;2023-08-31T14:40:59;99242.63;;;25.76
15144;BMP180;7672;50.834;6.286;2023-08-31T14:43:27;99260.84;;;25.74
15144;BMP180;7672;50.834;6.286;2023-08-31T14:46:06;99262.06;;;25.69
15144;BMP180;7672;50.834;6.286;2023-08-31T14:48:33;99264.00;;;25.65
15144;BMP180;7672;50.834;6.286;2023-08-31T14:51:00;99268.53;;;25.62
15144;BMP180;7672;50.834;6.286;2023-08-31T14:53:28;99270.56;;;25.57